Time;durP1;ratioP1;P1;durP2;ratioP2;P2;SDS_P1;SDS_P2;PMS_P1;PMS_P2;Temp;Humidity;BMP_temperature;BMP_pressure;BME280_temperature;BME280_humidity;BME280_pressure;Samples;Min_cycle;Max_cycle;Signal;HPM_P1;HPM_P2
2024/01/25 00:01:16;;;;;;;0.43;0.43;;;7.10;99.90;;;;;;5069060;28;20182;-86
2024/01/25 00:03:41;;;;;;;0.40;0.40;;;7.10;99.90;;;;;;5069013;28;20201;-88
2024/01/25 00:06:07;;;;;;;0.50;0.50;;;7.10;99.90;;;;;;5068902;28;20186;-87
2024/01/25 00:08:34;;;;;;;0.40;0.40;;;7.10;99.90;;;;;;5065357;28;20182;-87
2024/01/25 00:11:01;;;;;;;0.50;0.50;;;7.20;99.90;;;;;;5069314;28;20284;-87
2024/01/25 00:13:26;;;;;;;0.40;0.40;;;7.10;99.90;;;;;;5069723;28;20973;-86
2024/01/25 00:15:52;;;;;;;0.40;0.40;;;7.20;99.90;;;;;;5069220;28;20436;-87
2024/01/25 00:18:17;;;;;;;0.47;0.47;;;7.20;99.90;;;;;;5069274;28;20819;-86
2024/01/25 00:20:43;;;;;;;0.40;0.40;;;7.20;99.90;;;;;;5058589;28;20182;-87
2024/01/25 00:23:08;;;;;;;0.20;0.20;;;7.20;99.90;;;;;;5069802;28;20178;-87
2024/01/25 00:25:34;;;;;;;0.40;0.40;;;7.20;99.90;;;;;;5069504;28;20213;-87
2024/01/25 00:27:59;;;;;;;0.40;0.40;;;7.20;99.90;;;;;;5068703;28;20188;-87
2024/01/25 00:30:25;;;;;;;0.30;0.30;;;7.20;99.90;;;;;;5050317;28;20937;-87
2024/01/25 00:32:50;;;;;;;0.35;0.35;;;7.20;99.90;;;;;;5049528;28;20185;-87
2024/01/25 00:35:16;;;;;;;0.30;0.30;;;7.20;99.90;;;;;;5051537;28;20595;-87
2024/01/25 00:37:42;;;;;;;0.30;0.30;;;7.20;99.90;;;;;;5051824;28;20264;-87
2024/01/25 00:40:08;;;;;;;0.40;0.40;;;7.10;99.90;;;;;;5068230;28;20705;-87
2024/01/25 00:42:42;;;;;;;0.40;0.40;;;7.10;99.90;;;;;;5068674;28;20420;-87
2024/01/25 00:45:08;;;;;;;0.30;0.30;;;7.10;99.90;;;;;;5069481;28;20435;-89
2024/01/25 00:47:34;;;;;;;0.30;0.30;;;7.10;99.90;;;;;;5068860;28;20778;-87
2024/01/25 00:49:59;;;;;;;0.30;0.30;;;7.10;99.90;;;;;;5067936;28;20486;-86
2024/01/25 00:52:25;;;;;;;0.30;0.30;;;7.00;99.90;;;;;;5069846;28;20174;-87
2024/01/25 00:54:51;;;;;;;0.30;0.30;;;7.00;99.90;;;;;;5069229;28;20705;-86
2024/01/25 00:57:17;;;;;;;0.20;0.20;;;7.00;99.90;;;;;;5069443;28;20928;-86
2024/01/25 00:59:43;;;;;;;0.20;0.20;;;6.90;99.90;;;;;;5069864;28;20182;-87
2024/01/25 01:02:12;;;;;;;0.30;0.30;;;6.90;99.90;;;;;;5069055;28;20182;-86
2024/01/25 01:04:38;;;;;;;0.20;0.20;;;6.90;99.90;;;;;;5068637;28;20197;-87
2024/01/25 01:07:04;;;;;;;0.30;0.30;;;6.90;99.90;;;;;;5067423;28;20472;-86
2024/01/25 01:09:30;;;;;;;0.30;0.30;;;6.90;99.90;;;;;;5067690;28;21083;-87
2024/01/25 01:11:55;;;;;;;0.30;0.30;;;6.90;99.90;;;;;;5046338;28;20517;-88
2024/01/25 01:14:21;;;;;;;0.33;0.33;;;6.90;99.90;;;;;;5072575;28;20189;-86
2024/01/25 01:16:46;;;;;;;0.37;0.37;;;6.90;99.90;;;;;;5072081;28;20235;-87
2024/01/25 01:19:12;;;;;;;0.30;0.30;;;6.90;99.90;;;;;;5072495;28;20232;-87
2024/01/25 01:21:41;;;;;;;0.30;0.30;;;6.90;99.90;;;;;;5071210;28;20317;-87
2024/01/25 01:24:06;;;;;;;0.53;0.53;;;6.90;99.90;;;;;;5067183;28;20175;-87
2024/01/25 01:26:32;;;;;;;0.30;0.30;;;6.90;99.90;;;;;;5071789;28;20439;-87
2024/01/25 01:28:57;;;;;;;0.20;0.20;;;6.90;99.90;;;;;;5072511;28;20186;-86
2024/01/25 01:31:23;;;;;;;0.40;0.40;;;6.90;99.90;;;;;;5071584;28;20761;-87
2024/01/25 01:33:48;;;;;;;0.30;0.30;;;6.90;99.90;;;;;;5072355;28;20190;-87
2024/01/25 01:36:14;;;;;;;0.30;0.30;;;6.90;99.90;;;;;;5071023;28;20181;-86
2024/01/25 01:38:40;;;;;;;0.30;0.30;;;6.90;99.90;;;;;;5071248;28;20576;-86
2024/01/25 01:41:05;;;;;;;0.20;0.20;;;6.90;99.90;;;;;;5052948;28;20179;-87
2024/01/25 01:43:31;;;;;;;0.30;0.30;;;6.90;99.90;;;;;;5072388;28;20428;-86
2024/01/25 01:46:04;;;;;;;0.30;0.30;;;6.90;99.90;;;;;;5072091;28;20186;-87
2024/01/25 01:48:30;;;;;;;0.40;0.40;;;6.90;99.90;;;;;;5070408;28;20181;-87
2024/01/25 01:50:56;;;;;;;0.30;0.30;;;6.90;99.90;;;;;;5072309;28;20480;-87
2024/01/25 01:53:22;;;;;;;0.30;0.30;;;6.90;99.90;;;;;;5072352;28;20186;-87
2024/01/25 01:55:48;;;;;;;0.30;0.30;;;6.90;99.90;;;;;;5070144;28;20205;-87
2024/01/25 01:58:14;;;;;;;0.30;0.30;;;6.90;99.90;;;;;;5071016;28;20181;-86
2024/01/25 02:00:42;;;;;;;0.30;0.30;;;6.80;99.90;;;;;;5053701;28;20189;-87
2024/01/25 02:03:07;;;;;;;0.30;0.30;;;6.80;99.90;;;;;;5072078;28;20431;-87
2024/01/25 02:05:33;;;;;;;0.30;0.30;;;6.80;99.90;;;;;;5054451;28;20424;-87
2024/01/25 02:07:58;;;;;;;0.30;0.30;;;6.80;99.90;;;;;;5071653;28;20209;-87
2024/01/25 02:10:24;;;;;;;0.20;0.20;;;6.80;99.90;;;;;;5071156;28;20214;-88
2024/01/25 02:12:49;;;;;;;0.30;0.30;;;6.80;99.90;;;;;;5046152;28;20218;-87
2024/01/25 02:15:15;;;;;;;0.30;0.30;;;6.80;99.90;;;;;;5054914;28;20192;-87
2024/01/25 02:17:41;;;;;;;0.30;0.30;;;6.80;99.90;;;;;;5071750;28;20638;-87
2024/01/25 02:20:07;;;;;;;0.27;0.27;;;6.80;99.90;;;;;;5072365;28;20526;-88
2024/01/25 02:22:33;;;;;;;0.30;0.30;;;6.80;99.90;;;;;;5071310;28;20261;-87
2024/01/25 02:24:58;;;;;;;0.30;0.30;;;6.80;99.90;;;;;;5071947;28;20870;-88
2024/01/25 02:27:24;;;;;;;0.30;0.30;;;6.80;99.90;;;;;;5070412;28;20197;-88
2024/01/25 02:29:49;;;;;;;0.30;0.30;;;6.80;99.90;;;;;;5069696;28;20234;-88
2024/01/25 02:32:15;;;;;;;0.20;0.20;;;6.80;99.90;;;;;;5072174;28;20188;-87
2024/01/25 02:34:40;;;;;;;0.20;0.20;;;6.80;99.90;;;;;;5070934;28;20196;-88
2024/01/25 02:37:06;;;;;;;0.20;0.20;;;6.80;99.90;;;;;;5053811;28;20212;-87
2024/01/25 02:39:31;;;;;;;0.30;0.30;;;6.80;99.90;;;;;;5053083;28;20194;-87
2024/01/25 02:41:57;;;;;;;0.20;0.20;;;6.80;99.90;;;;;;5070995;28;20198;-87
2024/01/25 02:44:22;;;;;;;0.30;0.30;;;6.80;99.90;;;;;;5064217;28;20245;-88
2024/01/25 02:46:48;;;;;;;0.23;0.23;;;6.90;99.90;;;;;;5049625;28;20189;-87
2024/01/25 02:49:13;;;;;;;0.30;0.30;;;6.80;99.90;;;;;;5071228;28;20182;-87
2024/01/25 02:51:39;;;;;;;0.20;0.20;;;6.90;99.90;;;;;;5070078;28;20240;-87
2024/01/25 02:54:04;;;;;;;0.30;0.30;;;6.90;99.90;;;;;;5071238;28;20268;-86
2024/01/25 02:56:34;;;;;;;0.30;0.30;;;6.90;99.90;;;;;;5051730;28;20217;-87
2024/01/25 02:59:01;;;;;;;0.30;0.30;;;6.90;99.90;;;;;;5069462;28;20634;-87
2024/01/25 03:01:26;;;;;;;0.30;0.30;;;6.90;99.90;;;;;;5069141;28;20424;-88
2024/01/25 03:03:52;;;;;;;0.30;0.30;;;6.90;99.90;;;;;;5069567;28;20817;-87
2024/01/25 03:06:17;;;;;;;0.30;0.30;;;6.90;99.90;;;;;;5053055;28;20193;-86
2024/01/25 03:08:43;;;;;;;0.30;0.30;;;6.90;99.90;;;;;;5069849;28;20186;-88
2024/01/25 03:11:08;;;;;;;0.40;0.40;;;6.90;99.90;;;;;;5069656;28;20225;-88
2024/01/25 03:13:34;;;;;;;0.30;0.30;;;6.90;99.90;;;;;;5067031;28;20197;-87
2024/01/25 03:15:59;;;;;;;0.30;0.30;;;6.90;99.90;;;;;;5069362;28;20178;-88
2024/01/25 03:18:25;;;;;;;0.30;0.30;;;6.80;99.90;;;;;;5050471;28;20429;-88
2024/01/25 03:20:51;;;;;;;0.30;0.30;;;6.80;99.90;;;;;;5052235;28;20178;-87
2024/01/25 03:23:17;;;;;;;0.30;0.30;;;6.90;99.90;;;;;;5052566;28;20242;-86
2024/01/25 03:25:42;;;;;;;0.30;0.30;;;6.80;99.90;;;;;;5069998;28;20315;-87
2024/01/25 03:28:09;;;;;;;0.30;0.30;;;6.90;99.90;;;;;;5050535;28;20456;-86
2024/01/25 03:30:34;;;;;;;0.30;0.30;;;6.90;99.90;;;;;;5051556;28;20224;-87
2024/01/25 03:33:00;;;;;;;0.30;0.30;;;6.80;99.90;;;;;;5066983;28;20419;-87
2024/01/25 03:35:26;;;;;;;0.20;0.20;;;6.90;99.90;;;;;;5069506;28;20213;-86
2024/01/25 03:37:51;;;;;;;0.30;0.30;;;6.90;99.90;;;;;;5069699;28;20269;-86
2024/01/25 03:40:17;;;;;;;0.30;0.30;;;6.90;99.90;;;;;;5050901;28;20248;-87
2024/01/25 03:42:42;;;;;;;0.30;0.30;;;6.80;99.90;;;;;;5070183;28;20178;-87
2024/01/25 03:45:08;;;;;;;0.30;0.30;;;6.80;99.90;;;;;;5062460;28;20187;-87
2024/01/25 03:47:33;;;;;;;0.40;0.40;;;6.80;99.90;;;;;;5068108;28;20181;-88
2024/01/25 03:49:59;;;;;;;0.20;0.20;;;6.80;99.90;;;;;;5069359;28;20292;-87
2024/01/25 03:52:25;;;;;;;0.30;0.30;;;6.80;99.90;;;;;;5070414;28;20190;-87
2024/01/25 03:54:51;;;;;;;0.30;0.30;;;6.90;99.90;;;;;;5068167;28;20470;-88
2024/01/25 03:57:16;;;;;;;0.20;0.20;;;6.80;99.90;;;;;;5056777;28;20216;-85
2024/01/25 03:59:42;;;;;;;0.30;0.30;;;6.80;99.90;;;;;;5036944;28;20554;-86
2024/01/25 04:02:08;;;;;;;0.30;0.30;;;6.80;99.90;;;;;;5050049;28;20232;-87
2024/01/25 04:04:33;;;;;;;0.30;0.30;;;6.80;99.90;;;;;;5068461;28;20191;-87
2024/01/25 04:06:59;;;;;;;0.30;0.30;;;6.80;99.90;;;;;;5069879;28;20951;-87
2024/01/25 04:09:24;;;;;;;0.20;0.20;;;6.80;99.90;;;;;;5069623;28;20247;-87
2024/01/25 04:11:50;;;;;;;0.30;0.30;;;6.80;99.90;;;;;;5068294;28;20233;-88
2024/01/25 04:14:15;;;;;;;0.30;0.30;;;6.80;99.90;;;;;;5068634;28;20196;-87
2024/01/25 04:16:41;;;;;;;0.30;0.30;;;6.80;99.90;;;;;;5068838;28;20925;-88
2024/01/25 04:19:06;;;;;;;0.30;0.30;;;6.80;99.90;;;;;;5064600;28;20185;-87
2024/01/25 04:21:32;;;;;;;0.30;0.30;;;6.80;99.90;;;;;;5066209;28;20235;-87
2024/01/25 04:23:58;;;;;;;0.23;0.23;;;6.80;99.90;;;;;;5069266;28;20178;-86
2024/01/25 04:26:24;;;;;;;0.40;0.40;;;6.80;99.90;;;;;;5069247;28;20637;-86
2024/01/25 04:28:49;;;;;;;0.20;0.20;;;6.80;99.90;;;;;;5069222;28;20668;-87
2024/01/25 04:31:15;;;;;;;0.40;0.40;;;6.80;99.90;;;;;;5069044;28;20240;-86
2024/01/25 04:33:40;;;;;;;0.30;0.30;;;6.80;99.90;;;;;;5067064;28;20274;-86
2024/01/25 04:36:06;;;;;;;0.30;0.30;;;6.80;99.90;;;;;;5068439;28;20208;-87
2024/01/25 04:38:32;;;;;;;0.40;0.40;;;6.80;99.90;;;;;;5067948;28;20568;-86
2024/01/25 04:40:57;;;;;;;0.30;0.30;;;6.80;99.90;;;;;;5070724;28;20428;-87
2024/01/25 04:43:23;;;;;;;0.30;0.30;;;6.80;99.90;;;;;;5070556;28;20630;-87
2024/01/25 04:45:48;;;;;;;0.30;0.30;;;6.80;99.90;;;;;;5055471;28;20290;-86
2024/01/25 04:48:14;;;;;;;0.30;0.30;;;6.70;99.90;;;;;;5082688;28;20186;-86
2024/01/25 04:50:39;;;;;;;0.30;0.30;;;6.70;99.90;;;;;;5053015;28;20220;-86
2024/01/25 04:53:05;;;;;;;0.30;0.30;;;6.70;99.90;;;;;;5073555;28;20662;-87
2024/01/25 04:55:30;;;;;;;0.30;0.30;;;6.70;99.90;;;;;;5073633;28;20545;-86
2024/01/25 04:57:56;;;;;;;0.30;0.30;;;6.70;99.90;;;;;;5073105;28;20739;-87
2024/01/25 05:00:22;;;;;;;0.30;0.30;;;6.70;99.90;;;;;;5072372;28;20235;-87
2024/01/25 05:02:49;;;;;;;0.30;0.30;;;6.70;99.90;;;;;;5070510;28;20265;-87
2024/01/25 05:05:15;;;;;;;0.30;0.30;;;6.70;99.90;;;;;;5072319;28;20554;-87
2024/01/25 05:07:40;;;;;;;0.40;0.40;;;6.70;99.90;;;;;;5052529;28;20523;-86
2024/01/25 05:10:06;;;;;;;0.30;0.30;;;6.70;99.90;;;;;;5051599;28;20472;-86
2024/01/25 05:12:32;;;;;;;0.30;0.30;;;6.70;99.90;;;;;;5072312;28;20467;-87
2024/01/25 05:14:58;;;;;;;0.30;0.30;;;6.70;99.90;;;;;;5053549;28;20178;-87
2024/01/25 05:17:23;;;;;;;0.30;0.30;;;6.70;99.90;;;;;;5069921;28;20182;-88
2024/01/25 05:19:49;;;;;;;0.30;0.30;;;6.80;99.90;;;;;;5049537;28;20425;-88
2024/01/25 05:22:14;;;;;;;0.30;0.30;;;6.80;99.90;;;;;;5061996;28;20194;-87
2024/01/25 05:24:40;;;;;;;0.30;0.30;;;6.80;99.90;;;;;;5071409;28;20182;-85
2024/01/25 05:27:06;;;;;;;0.30;0.30;;;6.80;99.90;;;;;;5072201;28;20239;-87
2024/01/25 05:29:31;;;;;;;0.30;0.30;;;6.80;99.90;;;;;;5072832;28;20255;-88
2024/01/25 05:31:57;;;;;;;0.30;0.30;;;6.80;99.90;;;;;;5072372;28;20217;-87
2024/01/25 05:34:23;;;;;;;0.30;0.30;;;6.80;99.90;;;;;;5069685;28;20185;-87
2024/01/25 05:36:48;;;;;;;0.40;0.40;;;6.80;99.90;;;;;;5053721;28;20443;-87
2024/01/25 05:39:14;;;;;;;0.30;0.30;;;6.80;99.90;;;;;;5072294;28;20185;-87
2024/01/25 05:41:40;;;;;;;0.30;0.30;;;6.80;99.90;;;;;;5053892;28;20182;-87
2024/01/25 05:44:05;;;;;;;0.30;0.30;;;6.80;99.90;;;;;;5053752;28;20503;-88
2024/01/25 05:46:31;;;;;;;0.30;0.30;;;6.80;99.90;;;;;;5072174;28;20231;-88
2024/01/25 05:48:57;;;;;;;0.30;0.30;;;6.80;99.90;;;;;;5068534;28;20522;-87
2024/01/25 05:51:22;;;;;;;0.30;0.30;;;6.80;99.90;;;;;;5065379;28;20226;-87
2024/01/25 05:53:48;;;;;;;0.20;0.20;;;6.80;99.90;;;;;;5068863;28;20886;-88
2024/01/25 05:56:13;;;;;;;0.30;0.30;;;6.80;99.90;;;;;;5070072;28;20189;-88
2024/01/25 05:58:39;;;;;;;0.30;0.30;;;6.80;99.90;;;;;;5049984;28;20182;-87
2024/01/25 06:01:04;;;;;;;0.30;0.30;;;6.70;99.90;;;;;;5070512;28;20298;-88
2024/01/25 06:03:30;;;;;;;0.30;0.30;;;6.70;99.90;;;;;;5069796;28;20199;-87
2024/01/25 06:05:56;;;;;;;0.30;0.30;;;6.70;99.90;;;;;;5071122;28;20240;-88
2024/01/25 06:08:21;;;;;;;0.30;0.30;;;6.70;99.90;;;;;;5053031;28;20256;-88
2024/01/25 06:10:47;;;;;;;0.40;0.40;;;6.80;99.90;;;;;;5066033;28;20240;-87
2024/01/25 06:13:13;;;;;;;0.30;0.30;;;6.80;99.90;;;;;;5063496;28;20682;-88
2024/01/25 06:15:39;;;;;;;0.33;0.33;;;6.70;99.90;;;;;;5064610;28;20968;-89
2024/01/25 06:18:04;;;;;;;0.30;0.30;;;6.70;99.90;;;;;;5067707;28;20190;-88
2024/01/25 06:20:30;;;;;;;0.40;0.40;;;6.70;99.90;;;;;;5053786;28;20186;-87
2024/01/25 06:22:55;;;;;;;0.33;0.33;;;6.70;99.90;;;;;;5071664;28;20190;-87
2024/01/25 06:25:22;;;;;;;0.30;0.30;;;6.70;99.90;;;;;;5070268;28;20182;-88
2024/01/25 06:27:48;;;;;;;0.30;0.30;;;6.70;99.90;;;;;;5071413;28;20192;-88
2024/01/25 06:30:14;;;;;;;0.30;0.30;;;6.70;99.90;;;;;;5051489;28;20498;-88
2024/01/25 06:32:39;;;;;;;0.30;0.30;;;6.70;99.90;;;;;;5062274;28;20436;-90
2024/01/25 06:35:06;;;;;;;0.30;0.30;;;6.70;99.90;;;;;;5051808;28;20448;-89
2024/01/25 06:37:31;;;;;;;0.30;0.30;;;6.70;99.90;;;;;;5068154;28;20206;-89
2024/01/25 06:39:57;;;;;;;0.40;0.40;;;6.70;99.90;;;;;;5053956;28;20460;-87
2024/01/25 06:42:22;;;;;;;0.30;0.30;;;6.60;99.90;;;;;;5070627;28;20284;-87
2024/01/25 06:44:48;;;;;;;0.30;0.30;;;6.70;99.90;;;;;;5053114;28;20265;-87
2024/01/25 06:47:14;;;;;;;0.40;0.40;;;6.60;99.90;;;;;;5069965;28;20182;-87
2024/01/25 06:49:39;;;;;;;0.40;0.40;;;6.60;99.90;;;;;;5071845;28;20201;-87
2024/01/25 06:52:05;;;;;;;0.40;0.40;;;6.60;99.90;;;;;;5052408;28;20527;-87
2024/01/25 06:54:31;;;;;;;0.30;0.30;;;6.70;99.90;;;;;;5048917;28;20191;-88
2024/01/25 06:56:57;;;;;;;0.30;0.30;;;6.60;99.90;;;;;;5067979;28;20182;-90
2024/01/25 06:59:23;;;;;;;0.50;0.50;;;6.60;99.90;;;;;;5070469;28;20587;-89
2024/01/25 07:01:49;;;;;;;0.30;0.30;;;6.60;99.90;;;;;;5052683;28;20776;-88
2024/01/25 07:04:14;;;;;;;0.30;0.30;;;6.60;99.90;;;;;;5065663;28;20448;-88
2024/01/25 07:06:40;;;;;;;0.30;0.30;;;6.60;99.90;;;;;;5052483;28;20281;-88
2024/01/25 07:09:06;;;;;;;0.20;0.20;;;6.60;99.90;;;;;;5051763;28;20182;-90
2024/01/25 07:11:32;;;;;;;0.30;0.30;;;6.50;99.90;;;;;;5050972;28;20706;-87
2024/01/25 07:13:57;;;;;;;0.30;0.30;;;6.50;99.90;;;;;;5049410;28;20402;-87
2024/01/25 07:16:23;;;;;;;0.30;0.30;;;6.50;99.90;;;;;;5068149;28;20186;-89
2024/01/25 07:18:49;;;;;;;0.20;0.20;;;6.50;99.90;;;;;;5052280;28;20211;-89
2024/01/25 07:21:15;;;;;;;0.20;0.20;;;6.40;99.90;;;;;;5067849;28;20440;-88
2024/01/25 07:23:40;;;;;;;0.30;0.30;;;6.40;99.90;;;;;;5052631;28;20436;-89
2024/01/25 07:26:06;;;;;;;0.30;0.30;;;6.40;99.90;;;;;;5048312;28;20183;-89
2024/01/25 07:28:32;;;;;;;0.30;0.30;;;6.40;99.90;;;;;;5056060;28;20209;-90
2024/01/25 07:30:57;;;;;;;0.30;0.30;;;6.40;99.90;;;;;;5052104;28;20304;-87
2024/01/25 07:33:23;;;;;;;0.30;0.30;;;6.30;99.90;;;;;;5070620;28;20196;-88
2024/01/25 07:35:48;;;;;;;0.20;0.20;;;6.30;99.90;;;;;;5069186;28;20194;-88
2024/01/25 07:38:17;;;;;;;0.30;0.30;;;6.30;99.90;;;;;;5070112;28;20182;-88
2024/01/25 07:40:43;;;;;;;0.30;0.30;;;6.30;99.90;;;;;;5069960;28;20197;-87
2024/01/25 07:43:08;;;;;;;0.27;0.27;;;6.30;99.90;;;;;;5069308;28;20428;-87
2024/01/25 07:45:34;;;;;;;0.30;0.30;;;6.30;99.90;;;;;;5069301;28;21037;-90
2024/01/25 07:48:00;;;;;;;0.30;0.30;;;6.40;99.90;;;;;;5061103;28;20678;-87
2024/01/25 07:50:25;;;;;;;0.30;0.30;;;6.40;99.90;;;;;;5064563;28;20221;-86
2024/01/25 07:52:51;;;;;;;0.30;0.30;;;6.40;99.90;;;;;;5069816;28;20178;-90
2024/01/25 07:55:17;;;;;;;0.30;0.30;;;6.40;99.90;;;;;;5053432;28;20689;-89
2024/01/25 07:57:42;;;;;;;0.20;0.20;;;6.40;99.90;;;;;;5062408;28;20196;-88
2024/01/25 08:00:08;;;;;;;0.30;0.30;;;6.40;99.90;;;;;;5066950;28;20186;-89
2024/01/25 08:02:43;;;;;;;0.30;0.30;;;6.40;99.90;;;;;;5034923;28;20187;-89
2024/01/25 08:05:08;;;;;;;0.30;0.30;;;6.50;99.90;;;;;;5066889;28;20464;-90
2024/01/25 08:07:36;;;;;;;0.30;0.30;;;6.50;99.90;;;;;;5048793;28;20456;-88
2024/01/25 08:10:04;;;;;;;0.30;0.30;;;6.50;99.90;;;;;;5070498;28;20263;-88
2024/01/25 08:12:29;;;;;;;0.30;0.30;;;6.50;99.90;;;;;;5068627;28;20498;-89
2024/01/25 08:14:55;;;;;;;0.30;0.30;;;6.50;99.90;;;;;;5066488;28;20432;-88
2024/01/25 08:17:21;;;;;;;0.30;0.30;;;6.60;99.90;;;;;;5068544;28;20244;-87
2024/01/25 08:19:46;;;;;;;0.20;0.20;;;6.60;99.90;;;;;;5070269;28;20186;-89
2024/01/25 08:22:12;;;;;;;0.30;0.30;;;6.60;99.90;;;;;;5062221;28;20194;-89
2024/01/25 08:24:40;;;;;;;0.30;0.30;;;6.60;99.90;;;;;;5070626;28;20182;-89
2024/01/25 08:27:07;;;;;;;0.30;0.30;;;6.60;99.90;;;;;;5068817;28;20888;-89
2024/01/25 08:29:33;;;;;;;0.30;0.30;;;6.60;99.90;;;;;;5071016;28;20424;-89
2024/01/25 08:31:58;;;;;;;0.30;0.30;;;6.60;99.90;;;;;;5070994;28;20490;-88
2024/01/25 08:34:24;;;;;;;0.30;0.30;;;6.70;99.90;;;;;;5066499;28;20200;-88
2024/01/25 08:36:49;;;;;;;0.30;0.30;;;6.70;99.90;;;;;;5065444;28;20193;-89
2024/01/25 08:39:15;;;;;;;0.30;0.30;;;6.70;99.90;;;;;;5070198;28;20181;-90
2024/01/25 08:41:42;;;;;;;0.30;0.30;;;6.70;99.90;;;;;;5068406;28;20178;-88
2024/01/25 08:44:08;;;;;;;0.30;0.30;;;6.70;99.90;;;;;;5067570;28;20189;-89
2024/01/25 08:46:34;;;;;;;0.30;0.30;;;6.80;99.90;;;;;;5053574;28;20437;-89
2024/01/25 08:48:59;;;;;;;0.20;0.20;;;6.90;99.90;;;;;;5066144;28;20817;-89
2024/01/25 08:51:26;;;;;;;0.20;0.20;;;6.90;99.90;;;;;;5064052;28;20218;-89
2024/01/25 08:53:51;;;;;;;0.30;0.30;;;6.90;99.90;;;;;;5052104;28;20182;-89
2024/01/25 08:56:17;;;;;;;0.30;0.30;;;6.90;99.90;;;;;;5053095;28;20498;-88
2024/01/25 08:58:43;;;;;;;0.30;0.30;;;7.00;99.90;;;;;;5070043;28;20181;-90
2024/01/25 09:01:08;;;;;;;0.20;0.20;;;6.90;99.90;;;;;;5070612;28;20213;-90
2024/01/25 09:03:34;;;;;;;0.30;0.30;;;7.10;99.90;;;;;;5068759;28;20863;-90
2024/01/25 09:06:05;;;;;;;0.20;0.20;;;7.10;99.90;;;;;;5068460;28;20634;-89
2024/01/25 09:08:30;;;;;;;0.20;0.20;;;7.10;99.90;;;;;;5046091;28;20193;-90
2024/01/25 09:10:56;;;;;;;0.20;0.20;;;7.10;99.90;;;;;;5071011;28;20480;-89
2024/01/25 09:13:21;;;;;;;0.30;0.30;;;7.10;99.90;;;;;;5068105;28;20452;-88
2024/01/25 09:15:47;;;;;;;0.30;0.30;;;7.20;99.90;;;;;;5068424;28;20206;-90
2024/01/25 09:18:13;;;;;;;0.20;0.20;;;7.10;99.90;;;;;;5062289;28;20197;-89
2024/01/25 09:20:38;;;;;;;0.20;0.20;;;7.10;99.90;;;;;;5042807;28;20191;-89
2024/01/25 09:23:04;;;;;;;0.20;0.20;;;7.10;99.90;;;;;;5060006;28;20190;-87
2024/01/25 09:25:29;;;;;;;0.30;0.30;;;7.30;99.90;;;;;;5046691;28;20185;-85
2024/01/25 09:27:56;;;;;;;0.20;0.20;;;7.30;99.90;;;;;;5071787;28;20190;-87
2024/01/25 09:30:22;;;;;;;0.20;0.20;;;7.40;99.90;;;;;;5052808;28;20685;-87
2024/01/25 09:32:48;;;;;;;0.20;0.20;;;7.40;99.90;;;;;;5067776;28;21019;-87
2024/01/25 09:35:13;;;;;;;0.20;0.20;;;7.40;99.90;;;;;;5068534;28;20179;-85
2024/01/25 09:37:40;;;;;;;0.20;0.20;;;7.50;99.90;;;;;;5067775;28;20186;-85
2024/01/25 09:40:06;;;;;;;0.20;0.20;;;7.50;99.90;;;;;;5068998;28;20478;-87
2024/01/25 09:42:32;;;;;;;0.20;0.20;;;7.40;99.90;;;;;;5075079;28;20194;-90
2024/01/25 09:44:59;;;;;;;0.20;0.20;;;7.60;99.90;;;;;;5068486;28;20456;-90
2024/01/25 09:47:24;;;;;;;0.20;0.20;;;7.70;99.90;;;;;;5064205;28;20189;-89
2024/01/25 09:49:50;;;;;;;0.20;0.20;;;7.80;99.90;;;;;;5066668;28;20476;-89
2024/01/25 09:52:16;;;;;;;0.20;0.20;;;7.90;99.90;;;;;;5071882;28;20206;-90
2024/01/25 09:54:43;;;;;;;0.20;0.20;;;7.80;99.90;;;;;;5073638;28;20304;-90
2024/01/25 09:57:19;;;;;;;0.20;0.20;;;7.80;99.90;;;;;;5051075;28;20437;-89
2024/01/25 09:59:45;;;;;;;0.20;0.20;;;7.70;99.90;;;;;;5071194;28;20443;-89
2024/01/25 10:02:11;;;;;;;0.20;0.20;;;7.80;99.90;;;;;;5071389;28;20456;-89
2024/01/25 10:04:37;;;;;;;0.20;0.20;;;7.90;99.90;;;;;;5071992;28;21000;-86
2024/01/25 10:07:03;;;;;;;0.20;0.20;;;7.90;99.90;;;;;;5062390;28;20443;-88
2024/01/25 10:09:37;;;;;;;0.20;0.20;;;8.00;99.90;;;;;;5066119;28;20432;-91
2024/01/25 10:12:03;;;;;;;0.20;0.20;;;8.00;99.90;;;;;;5066875;28;20967;-89
2024/01/25 10:14:28;;;;;;;0.20;0.20;;;8.00;99.90;;;;;;5070538;28;20444;-89
2024/01/25 10:16:54;;;;;;;0.20;0.20;;;7.90;99.90;;;;;;5074089;28;20200;-90
2024/01/25 10:19:20;;;;;;;0.20;0.20;;;7.90;99.90;;;;;;5068687;28;20207;-89
2024/01/25 10:21:46;;;;;;;0.20;0.20;;;7.90;99.90;;;;;;5046492;28;20174;-90
2024/01/25 10:24:13;;;;;;;0.20;0.20;;;8.20;99.90;;;;;;5072948;28;21022;-89
2024/01/25 10:26:40;;;;;;;0.20;0.20;;;8.10;99.90;;;;;;5071346;28;20178;-89
2024/01/25 10:29:06;;;;;;;0.20;0.20;;;8.20;99.90;;;;;;5053238;28;20432;-89
2024/01/25 10:31:36;;;;;;;0.20;0.20;;;8.70;99.90;;;;;;5069533;28;20483;-87
2024/01/25 10:34:01;;;;;;;0.20;0.20;;;8.70;99.90;;;;;;5071700;28;20243;-90
2024/01/25 10:36:27;;;;;;;0.20;0.20;;;8.90;99.90;;;;;;5047693;28;20448;-90
2024/01/25 10:38:54;;;;;;;0.20;0.20;;;8.80;99.90;;;;;;5071896;28;20182;-89
2024/01/25 10:41:20;;;;;;;0.20;0.20;;;9.20;99.90;;;;;;5043424;28;20425;-89
2024/01/25 10:43:46;;;;;;;0.20;0.20;;;8.60;99.90;;;;;;5069971;28;20447;-86
2024/01/25 10:46:11;;;;;;;0.20;0.20;;;9.00;99.90;;;;;;5080462;28;20217;-89
2024/01/25 10:48:38;;;;;;;0.20;0.20;;;8.80;99.90;;;;;;5076399;28;20763;-88
2024/01/25 10:51:05;;;;;;;0.20;0.20;;;9.40;99.90;;;;;;5074443;28;20555;-90
2024/01/25 10:53:34;;;;;;;0.20;0.20;;;10.10;99.90;;;;;;5067057;28;20460;-88
2024/01/25 10:56:00;;;;;;;;;;;10.50;99.90;;;;;;5052932;28;20271;-90
2024/01/25 10:58:31;;;;;;;0.20;0.20;;;10.40;99.90;;;;;;5052874;28;20182;-88
2024/01/25 11:00:58;;;;;;;0.20;0.20;;;10.00;99.90;;;;;;5071467;28;20420;-88
2024/01/25 11:03:33;;;;;;;0.17;0.17;;;9.50;99.90;;;;;;5070930;28;20842;-89
2024/01/25 11:06:09;;;;;;;0.20;0.20;;;9.20;99.90;;;;;;5069577;28;20439;-90
2024/01/25 11:08:38;;;;;;;0.20;0.20;;;9.20;99.90;;;;;;5055118;28;20443;-89
2024/01/25 11:11:10;;;;;;;0.20;0.20;;;9.00;99.90;;;;;;5070768;28;20487;-86
2024/01/25 11:13:39;;;;;;;0.20;0.20;;;9.00;99.90;;;;;;5050781;28;20435;-84
2024/01/25 11:16:15;;;;;;;0.20;0.20;;;8.90;99.90;;;;;;5064371;28;20421;-83
2024/01/25 11:18:52;;;;;;;0.20;0.20;;;8.70;99.90;;;;;;5068853;28;20432;-85
2024/01/25 11:21:42;;;;;;;0.20;0.20;;;8.60;99.90;;;;;;5070848;28;20460;-86
2024/01/25 11:24:21;;;;;;;0.20;0.20;;;9.00;99.90;;;;;;5059638;28;20424;-86
2024/01/25 11:26:47;;;;;;;0.20;0.20;;;9.10;99.90;;;;;;5059118;28;20454;-87
2024/01/25 11:29:17;;;;;;;0.20;0.20;;;9.10;99.90;;;;;;5070034;28;20442;-86
2024/01/25 11:31:44;;;;;;;0.20;0.20;;;9.00;99.90;;;;;;5070379;28;20887;-83
2024/01/25 11:34:11;;;;;;;0.20;0.20;;;9.30;99.90;;;;;;5070285;28;20442;-85
2024/01/25 11:36:37;;;;;;;0.20;0.20;;;9.30;99.90;;;;;;5063853;28;20451;-86
2024/01/25 11:39:03;;;;;;;0.20;0.20;;;9.10;99.90;;;;;;5070476;28;20421;-87
2024/01/25 11:41:30;;;;;;;0.20;0.20;;;9.00;99.90;;;;;;5071388;28;20174;-87
2024/01/25 11:43:56;;;;;;;0.20;0.20;;;9.10;99.90;;;;;;5063603;28;20926;-88
2024/01/25 11:46:22;;;;;;;0.20;0.20;;;9.10;99.90;;;;;;5067324;28;20448;-85
2024/01/25 11:48:47;;;;;;;0.20;0.20;;;8.90;99.90;;;;;;5070252;28;20189;-85
2024/01/25 11:51:13;;;;;;;0.20;0.20;;;9.00;99.90;;;;;;5051063;28;20217;-86
2024/01/25 11:53:39;;;;;;;0.20;0.20;;;9.10;99.90;;;;;;5051313;28;20182;-85
2024/01/25 11:56:08;;;;;;;0.20;0.20;;;9.70;99.90;;;;;;5051735;28;20272;-85
2024/01/25 11:58:34;;;;;;;0.20;0.20;;;9.80;99.90;;;;;;5052064;28;20974;-85
2024/01/25 12:01:02;;;;;;;0.20;0.20;;;9.80;99.90;;;;;;5068745;28;20462;-85
2024/01/25 12:03:28;;;;;;;0.10;0.10;;;10.10;99.90;;;;;;5051700;28;20432;-84
2024/01/25 12:05:54;;;;;;;0.20;0.20;;;11.00;99.90;;;;;;5067078;28;20439;-84
2024/01/25 12:08:19;;;;;;;0.10;0.10;;;11.30;99.90;;;;;;5066311;28;20202;-85
2024/01/25 12:10:45;;;;;;;0.10;0.10;;;11.80;99.90;;;;;;5069100;28;20563;-85
2024/01/25 12:13:10;;;;;;;0.10;0.10;;;12.30;99.90;;;;;;5067380;28;20336;-87
2024/01/25 12:15:36;;;;;;;0.10;0.10;;;12.40;99.90;;;;;;5069777;28;20189;-87
2024/01/25 12:18:02;;;;;;;0.10;0.10;;;12.80;99.90;;;;;;5066860;28;20174;-88
2024/01/25 12:20:28;;;;;;;0.10;0.10;;;12.40;99.90;;;;;;5052271;28;20189;-86
2024/01/25 12:22:54;;;;;;;0.10;0.10;;;12.20;99.90;;;;;;5066447;28;20212;-86
2024/01/25 12:25:20;;;;;;;0.10;0.10;;;11.60;99.90;;;;;;5069895;28;20924;-87
2024/01/25 12:27:49;;;;;;;0.10;0.10;;;10.60;99.90;;;;;;5052406;28;20277;-84
2024/01/25 12:30:15;;;;;;;0.10;0.10;;;10.40;99.90;;;;;;5050372;28;20287;-87
2024/01/25 12:32:40;;;;;;;0.10;0.10;;;10.60;99.90;;;;;;5063802;28;20801;-87
2024/01/25 12:35:07;;;;;;;0.10;0.10;;;11.30;99.90;;;;;;5065683;28;20924;-87
2024/01/25 12:37:33;;;;;;;0.20;0.20;;;11.30;99.90;;;;;;5069309;28;20185;-88
2024/01/25 12:39:58;;;;;;;0.10;0.10;;;10.80;99.90;;;;;;5045718;28;20429;-88
2024/01/25 12:42:24;;;;;;;0.20;0.20;;;10.40;99.90;;;;;;5068085;28;20181;-86
2024/01/25 12:44:54;;;;;;;0.10;0.10;;;10.00;99.90;;;;;;5070363;28;20186;-89
2024/01/25 12:47:20;;;;;;;0.10;0.10;;;9.70;99.90;;;;;;5050234;28;20182;-83
2024/01/25 12:49:45;;;;;;;0.20;0.20;;;9.50;99.90;;;;;;5065279;28;20446;-85
2024/01/25 12:52:12;;;;;;;0.20;0.20;;;9.10;99.90;;;;;;5069360;28;20537;-84